sensor_id;sensor_type;location;lat;lon;timestamp;P1;durP1;ratioP1;P2;durP2;ratioP2
13564;SDS011;6854;48.096;11.278;2023-04-03T05:15:51;13.43;;;5.80;;
13564;SDS011;6854;48.096;11.278;2023-04-03T05:18:17;11.57;;;5.77;;
13564;SDS011;6854;48.096;11.278;2023-04-03T05:20:43;8.70;;;5.20;;
13564;SDS011;6854;48.096;11.278;2023-04-03T05:23:09;7.60;;;5.97;;
13564;SDS011;6854;48.096;11.278;2023-04-03T05:25:37;10.60;;;6.43;;
13564;SDS011;6854;48.096;11.278;2023-04-03T05:28:03;10.77;;;6.13;;
13564;SDS011;6854;48.096;11.278;2023-04-03T05:30:29;8.40;;;5.73;;
13564;SDS011;6854;48.096;11.278;2023-04-03T05:32:55;9.40;;;6.60;;
13564;SDS011;6854;48.096;11.278;2023-04-03T05:35:21;10.73;;;5.80;;
13564;SDS011;6854;48.096;11.278;2023-04-03T05:37:48;10.50;;;6.90;;
13564;SDS011;6854;48.096;11.278;2023-04-03T05:40:14;9.57;;;6.40;;
13564;SDS011;6854;48.096;11.278;2023-04-03T05:42:40;9.43;;;6.37;;
13564;SDS011;6854;48.096;11.278;2023-04-03T05:45:06;12.30;;;5.97;;
13564;SDS011;6854;48.096;11.278;2023-04-03T05:47:32;9.13;;;6.17;;
13564;SDS011;6854;48.096;11.278;2023-04-03T05:49:58;9.13;;;5.60;;
13564;SDS011;6854;48.096;11.278;2023-04-03T05:54:50;11.90;;;5.70;;
13564;SDS011;6854;48.096;11.278;2023-04-03T05:57:24;9.80;;;5.70;;
13564;SDS011;6854;48.096;11.278;2023-04-03T05:59:50;9.30;;;5.27;;
13564;SDS011;6854;48.096;11.278;2023-04-03T06:02:17;8.40;;;5.37;;
13564;SDS011;6854;48.096;11.278;2023-04-03T06:04:43;9.83;;;5.43;;
13564;SDS011;6854;48.096;11.278;2023-04-03T06:07:16;10.57;;;5.37;;
13564;SDS011;6854;48.096;11.278;2023-04-03T06:09:43;9.67;;;5.30;;
13564;SDS011;6854;48.096;11.278;2023-04-03T06:12:09;8.10;;;5.67;;
13564;SDS011;6854;48.096;11.278;2023-04-03T06:14:36;13.27;;;5.40;;
13564;SDS011;6854;48.096;11.278;2023-04-03T06:17:02;9.00;;;5.37;;
13564;SDS011;6854;48.096;11.278;2023-04-03T06:19:29;8.13;;;4.93;;
13564;SDS011;6854;48.096;11.278;2023-04-03T06:21:56;8.17;;;4.83;;
13564;SDS011;6854;48.096;11.278;2023-04-03T06:24:22;9.37;;;5.83;;
13564;SDS011;6854;48.096;11.278;2023-04-03T06:26:49;8.83;;;5.40;;
13564;SDS011;6854;48.096;11.278;2023-04-03T06:29:16;9.40;;;6.00;;
13564;SDS011;6854;48.096;11.278;2023-04-03T06:31:42;10.70;;;5.30;;
13564;SDS011;6854;48.096;11.278;2023-04-03T06:34:09;8.10;;;4.77;;
13564;SDS011;6854;48.096;11.278;2023-04-03T06:36:37;9.67;;;5.23;;
13564;SDS011;6854;48.096;11.278;2023-04-03T06:39:03;9.67;;;4.33;;
13564;SDS011;6854;48.096;11.278;2023-04-03T06:41:30;9.37;;;5.83;;
13564;SDS011;6854;48.096;11.278;2023-04-03T06:43:56;7.47;;;5.03;;
13564;SDS011;6854;48.096;11.278;2023-04-03T06:46:23;8.07;;;4.93;;
13564;SDS011;6854;48.096;11.278;2023-04-03T06:48:50;9.87;;;5.30;;
13564;SDS011;6854;48.096;11.278;2023-04-03T06:51:21;9.17;;;5.27;;
13564;SDS011;6854;48.096;11.278;2023-04-03T06:53:47;9.50;;;5.43;;
13564;SDS011;6854;48.096;11.278;2023-04-03T06:56:14;8.30;;;4.80;;
13564;SDS011;6854;48.096;11.278;2023-04-03T06:58:40;8.03;;;5.73;;
13564;SDS011;6854;48.096;11.278;2023-04-03T07:01:07;7.53;;;5.47;;
13564;SDS011;6854;48.096;11.278;2023-04-03T07:03:33;7.33;;;5.20;;
13564;SDS011;6854;48.096;11.278;2023-04-03T07:06:00;9.27;;;5.80;;
13564;SDS011;6854;48.096;11.278;2023-04-03T07:08:27;12.50;;;5.47;;
13564;SDS011;6854;48.096;11.278;2023-04-03T07:10:53;7.27;;;4.93;;
13564;SDS011;6854;48.096;11.278;2023-04-03T07:13:20;7.60;;;5.00;;
13564;SDS011;6854;48.096;11.278;2023-04-03T07:15:47;5.97;;;4.80;;
13564;SDS011;6854;48.096;11.278;2023-04-03T07:18:13;8.57;;;5.23;;
13564;SDS011;6854;48.096;11.278;2023-04-03T07:20:39;6.57;;;4.73;;
13564;SDS011;6854;48.096;11.278;2023-04-03T07:23:05;12.30;;;5.00;;
13564;SDS011;6854;48.096;11.278;2023-04-03T07:25:31;9.33;;;5.37;;
13564;SDS011;6854;48.096;11.278;2023-04-03T07:27:58;8.23;;;5.00;;
13564;SDS011;6854;48.096;11.278;2023-04-03T07:30:24;6.87;;;4.90;;
13564;SDS011;6854;48.096;11.278;2023-04-03T07:32:51;7.53;;;4.90;;
13564;SDS011;6854;48.096;11.278;2023-04-03T07:35:17;9.93;;;4.93;;
13564;SDS011;6854;48.096;11.278;2023-04-03T07:37:43;8.73;;;4.90;;
13564;SDS011;6854;48.096;11.278;2023-04-03T07:40:10;8.03;;;4.30;;
13564;SDS011;6854;48.096;11.278;2023-04-03T07:42:36;6.00;;;4.37;;
13564;SDS011;6854;48.096;11.278;2023-04-03T07:45:02;7.30;;;4.47;;
13564;SDS011;6854;48.096;11.278;2023-04-03T07:47:29;7.03;;;4.30;;
13564;SDS011;6854;48.096;11.278;2023-04-03T07:49:55;5.50;;;4.00;;
13564;SDS011;6854;48.096;11.278;2023-04-03T07:52:23;5.30;;;3.97;;
13564;SDS011;6854;48.096;11.278;2023-04-03T07:54:49;8.00;;;4.33;;
13564;SDS011;6854;48.096;11.278;2023-04-03T07:57:15;6.77;;;4.40;;
13564;SDS011;6854;48.096;11.278;2023-04-03T07:59:41;6.90;;;4.20;;
13564;SDS011;6854;48.096;11.278;2023-04-03T08:02:11;8.73;;;4.23;;
13564;SDS011;6854;48.096;11.278;2023-04-03T08:04:37;8.17;;;5.00;;
13564;SDS011;6854;48.096;11.278;2023-04-03T08:07:03;8.10;;;4.73;;
13564;SDS011;6854;48.096;11.278;2023-04-03T08:09:30;6.67;;;4.10;;
13564;SDS011;6854;48.096;11.278;2023-04-03T08:11:57;10.87;;;4.63;;
13564;SDS011;6854;48.096;11.278;2023-04-03T08:14:23;9.30;;;4.77;;
13564;SDS011;6854;48.096;11.278;2023-04-03T08:16:49;8.60;;;4.47;;
13564;SDS011;6854;48.096;11.278;2023-04-03T08:19:15;7.63;;;4.80;;
13564;SDS011;6854;48.096;11.278;2023-04-03T08:21:43;5.40;;;4.13;;
13564;SDS011;6854;48.096;11.278;2023-04-03T08:24:09;11.03;;;5.10;;
13564;SDS011;6854;48.096;11.278;2023-04-03T08:26:35;6.07;;;4.30;;
13564;SDS011;6854;48.096;11.278;2023-04-03T08:29:02;13.30;;;6.33;;
13564;SDS011;6854;48.096;11.278;2023-04-03T08:31:28;5.80;;;3.83;;
13564;SDS011;6854;48.096;11.278;2023-04-03T08:33:54;8.97;;;5.13;;
13564;SDS011;6854;48.096;11.278;2023-04-03T08:36:23;11.77;;;6.90;;
13564;SDS011;6854;48.096;11.278;2023-04-03T08:38:49;4.77;;;3.77;;
13564;SDS011;6854;48.096;11.278;2023-04-03T08:46:13;7.63;;;4.00;;
13564;SDS011;6854;48.096;11.278;2023-04-03T08:48:41;9.60;;;4.93;;
13564;SDS011;6854;48.096;11.278;2023-04-03T08:51:15;9.27;;;4.33;;
13564;SDS011;6854;48.096;11.278;2023-04-03T08:53:44;8.30;;;4.10;;
13564;SDS011;6854;48.096;11.278;2023-04-03T08:56:11;9.40;;;3.80;;
13564;SDS011;6854;48.096;11.278;2023-04-03T08:58:45;7.00;;;4.20;;
13564;SDS011;6854;48.096;11.278;2023-04-03T09:01:17;7.63;;;4.50;;
13564;SDS011;6854;48.096;11.278;2023-04-03T09:03:43;6.07;;;3.80;;
13564;SDS011;6854;48.096;11.278;2023-04-03T09:06:13;11.73;;;4.50;;
13564;SDS011;6854;48.096;11.278;2023-04-03T09:08:43;7.90;;;4.50;;
13564;SDS011;6854;48.096;11.278;2023-04-03T09:13:49;5.27;;;4.20;;
13564;SDS011;6854;48.096;11.278;2023-04-03T09:22:21;7.97;;;4.63;;
13564;SDS011;6854;48.096;11.278;2023-04-03T09:25:02;6.70;;;5.07;;
13564;SDS011;6854;48.096;11.278;2023-04-03T09:28:02;7.67;;;4.53;;
13564;SDS011;6854;48.096;11.278;2023-04-03T09:30:28;10.60;;;5.03;;
13564;SDS011;6854;48.096;11.278;2023-04-03T09:32:57;12.27;;;5.30;;
13564;SDS011;6854;48.096;11.278;2023-04-03T09:35:27;7.03;;;4.70;;
13564;SDS011;6854;48.096;11.278;2023-04-03T09:38:23;7.60;;;4.67;;
13564;SDS011;6854;48.096;11.278;2023-04-03T09:41:35;7.17;;;4.13;;
13564;SDS011;6854;48.096;11.278;2023-04-03T09:43:37;9.80;;;4.07;;
13564;SDS011;6854;48.096;11.278;2023-04-03T09:46:24;8.73;;;4.10;;
13564;SDS011;6854;48.096;11.278;2023-04-03T09:49:03;6.67;;;3.70;;
13564;SDS011;6854;48.096;11.278;2023-04-03T09:51:36;6.63;;;3.80;;
13564;SDS011;6854;48.096;11.278;2023-04-03T09:54:15;8.20;;;4.00;;
13564;SDS011;6854;48.096;11.278;2023-04-03T09:56:51;6.53;;;3.67;;
13564;SDS011;6854;48.096;11.278;2023-04-03T09:59:19;8.80;;;4.23;;
13564;SDS011;6854;48.096;11.278;2023-04-03T10:01:57;6.60;;;3.50;;
13564;SDS011;6854;48.096;11.278;2023-04-03T10:04:24;4.60;;;3.47;;
13564;SDS011;6854;48.096;11.278;2023-04-03T10:06:53;5.70;;;3.67;;
13564;SDS011;6854;48.096;11.278;2023-04-03T10:09:23;5.70;;;3.17;;
13564;SDS011;6854;48.096;11.278;2023-04-03T10:11:57;5.50;;;3.17;;
13564;SDS011;6854;48.096;11.278;2023-04-03T10:14:24;4.63;;;2.57;;
13564;SDS011;6854;48.096;11.278;2023-04-03T10:19:51;5.77;;;2.83;;
13564;SDS011;6854;48.096;11.278;2023-04-03T10:25:02;9.43;;;3.27;;
13564;SDS011;6854;48.096;11.278;2023-04-03T10:53:29;9.03;;;4.40;;
13564;SDS011;6854;48.096;11.278;2023-04-03T10:58:40;5.00;;;3.10;;
13564;SDS011;6854;48.096;11.278;2023-04-03T11:01:10;6.37;;;4.50;;
13564;SDS011;6854;48.096;11.278;2023-04-03T11:03:40;5.23;;;3.80;;
13564;SDS011;6854;48.096;11.278;2023-04-03T11:06:14;4.93;;;3.50;;
13564;SDS011;6854;48.096;11.278;2023-04-03T11:11:17;9.00;;;4.83;;
13564;SDS011;6854;48.096;11.278;2023-04-03T11:13:49;7.27;;;4.23;;
13564;SDS011;6854;48.096;11.278;2023-04-03T11:16:27;6.77;;;3.90;;
13564;SDS011;6854;48.096;11.278;2023-04-03T11:19:17;6.90;;;4.03;;
13564;SDS011;6854;48.096;11.278;2023-04-03T11:21:54;7.60;;;4.60;;
13564;SDS011;6854;48.096;11.278;2023-04-03T11:24:42;6.50;;;4.13;;
13564;SDS011;6854;48.096;11.278;2023-04-03T11:27:17;6.80;;;3.63;;
13564;SDS011;6854;48.096;11.278;2023-04-03T11:29:50;5.60;;;4.00;;
13564;SDS011;6854;48.096;11.278;2023-04-03T11:32:27;5.83;;;3.00;;
13564;SDS011;6854;48.096;11.278;2023-04-03T11:34:56;7.27;;;3.37;;
13564;SDS011;6854;48.096;11.278;2023-04-03T11:37:34;4.80;;;2.70;;
13564;SDS011;6854;48.096;11.278;2023-04-03T11:40:03;9.23;;;3.43;;
13564;SDS011;6854;48.096;11.278;2023-04-03T11:43:01;4.87;;;3.50;;
13564;SDS011;6854;48.096;11.278;2023-04-03T11:48:47;4.93;;;3.20;;
13564;SDS011;6854;48.096;11.278;2023-04-03T11:50:55;4.77;;;2.87;;
13564;SDS011;6854;48.096;11.278;2023-04-03T11:53:28;4.43;;;2.83;;
13564;SDS011;6854;48.096;11.278;2023-04-03T11:58:33;4.80;;;3.00;;
13564;SDS011;6854;48.096;11.278;2023-04-03T12:04:16;8.03;;;2.90;;
13564;SDS011;6854;48.096;11.278;2023-04-03T12:07:36;5.73;;;2.67;;
13564;SDS011;6854;48.096;11.278;2023-04-03T12:10:28;7.83;;;2.60;;
13564;SDS011;6854;48.096;11.278;2023-04-03T12:13:13;4.03;;;2.33;;
13564;SDS011;6854;48.096;11.278;2023-04-03T12:15:53;5.50;;;2.50;;
13564;SDS011;6854;48.096;11.278;2023-04-03T12:19:39;4.90;;;2.53;;
13564;SDS011;6854;48.096;11.278;2023-04-03T12:24:25;4.97;;;2.40;;
13564;SDS011;6854;48.096;11.278;2023-04-03T12:29:35;5.63;;;2.40;;
13564;SDS011;6854;48.096;11.278;2023-04-03T12:34:38;3.10;;;1.80;;
13564;SDS011;6854;48.096;11.278;2023-04-03T12:37:09;4.17;;;1.87;;
13564;SDS011;6854;48.096;11.278;2023-04-03T12:39:55;5.30;;;2.47;;
13564;SDS011;6854;48.096;11.278;2023-04-03T12:44:54;8.40;;;2.10;;
13564;SDS011;6854;48.096;11.278;2023-04-03T12:54:57;14.07;;;1.70;;
13564;SDS011;6854;48.096;11.278;2023-04-03T12:57:24;2.00;;;1.60;;
13564;SDS011;6854;48.096;11.278;2023-04-03T12:59:51;5.20;;;2.20;;
13564;SDS011;6854;48.096;11.278;2023-04-03T13:04:43;4.33;;;2.10;;
13564;SDS011;6854;48.096;11.278;2023-04-03T13:07:20;3.70;;;2.17;;
13564;SDS011;6854;48.096;11.278;2023-04-03T13:09:54;2.90;;;1.60;;
13564;SDS011;6854;48.096;11.278;2023-04-03T13:12:20;9.17;;;2.10;;
13564;SDS011;6854;48.096;11.278;2023-04-03T13:14:57;3.33;;;1.83;;
13564;SDS011;6854;48.096;11.278;2023-04-03T13:17:24;3.87;;;2.07;;
13564;SDS011;6854;48.096;11.278;2023-04-03T13:19:51;3.30;;;2.00;;
13564;SDS011;6854;48.096;11.278;2023-04-03T13:22:24;2.80;;;1.80;;
13564;SDS011;6854;48.096;11.278;2023-04-03T13:24:54;3.17;;;2.10;;
13564;SDS011;6854;48.096;11.278;2023-04-03T13:27:20;3.90;;;1.70;;
13564;SDS011;6854;48.096;11.278;2023-04-03T13:29:51;3.17;;;2.10;;
13564;SDS011;6854;48.096;11.278;2023-04-03T13:32:22;3.97;;;1.90;;
13564;SDS011;6854;48.096;11.278;2023-04-03T13:34:48;3.10;;;1.77;;
13564;SDS011;6854;48.096;11.278;2023-04-03T13:37:25;13.17;;;2.97;;
13564;SDS011;6854;48.096;11.278;2023-04-03T13:42:25;7.93;;;2.33;;
13564;SDS011;6854;48.096;11.278;2023-04-03T13:47:38;5.53;;;2.00;;
13564;SDS011;6854;48.096;11.278;2023-04-03T13:52:47;5.70;;;2.20;;
13564;SDS011;6854;48.096;11.278;2023-04-03T13:55:18;2.67;;;1.50;;
13564;SDS011;6854;48.096;11.278;2023-04-03T13:57:53;3.70;;;1.93;;
13564;SDS011;6854;48.096;11.278;2023-04-03T14:00:39;3.40;;;2.00;;
13564;SDS011;6854;48.096;11.278;2023-04-03T14:03:40;3.07;;;1.70;;
13564;SDS011;6854;48.096;11.278;2023-04-03T14:05:58;4.43;;;2.10;;
13564;SDS011;6854;48.096;11.278;2023-04-03T14:08:25;4.83;;;2.37;;
13564;SDS011;6854;48.096;11.278;2023-04-03T14:10:52;4.10;;;1.90;;
13564;SDS011;6854;48.096;11.278;2023-04-03T14:13:18;3.60;;;1.70;;
13564;SDS011;6854;48.096;11.278;2023-04-03T14:15:46;3.20;;;1.90;;
13564;SDS011;6854;48.096;11.278;2023-04-03T14:18:13;8.50;;;2.50;;
13564;SDS011;6854;48.096;11.278;2023-04-03T14:20:40;4.43;;;2.00;;
13564;SDS011;6854;48.096;11.278;2023-04-03T14:23:06;3.27;;;1.80;;
13564;SDS011;6854;48.096;11.278;2023-04-03T14:25:32;6.90;;;2.67;;
13564;SDS011;6854;48.096;11.278;2023-04-03T14:27:59;9.90;;;3.67;;
13564;SDS011;6854;48.096;11.278;2023-04-03T14:30:30;4.63;;;2.17;;
13564;SDS011;6854;48.096;11.278;2023-04-03T14:32:57;5.90;;;2.43;;
13564;SDS011;6854;48.096;11.278;2023-04-03T14:35:24;3.03;;;1.83;;
13564;SDS011;6854;48.096;11.278;2023-04-03T14:37:51;3.50;;;2.07;;
13564;SDS011;6854;48.096;11.278;2023-04-03T14:40:19;18.73;;;1.77;;
13564;SDS011;6854;48.096;11.278;2023-04-03T14:42:45;6.57;;;2.03;;
13564;SDS011;6854;48.096;11.278;2023-04-03T14:45:13;4.17;;;2.00;;
13564;SDS011;6854;48.096;11.278;2023-04-03T14:47:42;5.07;;;1.80;;
13564;SDS011;6854;48.096;11.278;2023-04-03T14:50:12;3.70;;;1.70;;
13564;SDS011;6854;48.096;11.278;2023-04-03T14:52:39;3.03;;;1.70;;
13564;SDS011;6854;48.096;11.278;2023-04-03T14:55:05;2.97;;;1.80;;
13564;SDS011;6854;48.096;11.278;2023-04-03T14:57:32;5.00;;;2.00;;
13564;SDS011;6854;48.096;11.278;2023-04-03T14:59:58;4.43;;;1.80;;
13564;SDS011;6854;48.096;11.278;2023-04-03T15:02:29;4.13;;;1.93;;
13564;SDS011;6854;48.096;11.278;2023-04-03T15:04:56;3.13;;;2.00;;
13564;SDS011;6854;48.096;11.278;2023-04-03T15:07:23;7.30;;;2.30;;
13564;SDS011;6854;48.096;11.278;2023-04-03T15:09:49;5.00;;;2.00;;
13564;SDS011;6854;48.096;11.278;2023-04-03T15:12:16;2.10;;;1.30;;
13564;SDS011;6854;48.096;11.278;2023-04-03T15:14:42;3.07;;;1.70;;
13564;SDS011;6854;48.096;11.278;2023-04-03T15:17:17;4.83;;;1.93;;
13564;SDS011;6854;48.096;11.278;2023-04-03T15:19:45;3.10;;;1.80;;
13564;SDS011;6854;48.096;11.278;2023-04-03T15:22:13;3.30;;;1.53;;
13564;SDS011;6854;48.096;11.278;2023-04-03T15:24:40;3.80;;;1.50;;
13564;SDS011;6854;48.096;11.278;2023-04-03T15:27:06;2.20;;;1.40;;
13564;SDS011;6854;48.096;11.278;2023-04-03T15:29:32;3.40;;;1.63;;
13564;SDS011;6854;48.096;11.278;2023-04-03T15:31:58;3.93;;;1.37;;
13564;SDS011;6854;48.096;11.278;2023-04-03T15:34:24;4.87;;;1.63;;
13564;SDS011;6854;48.096;11.278;2023-04-03T15:36:50;2.07;;;1.33;;
13564;SDS011;6854;48.096;11.278;2023-04-03T15:39:20;3.20;;;1.30;;
13564;SDS011;6854;48.096;11.278;2023-04-03T15:41:46;7.50;;;1.57;;
13564;SDS011;6854;48.096;11.278;2023-04-03T15:44:12;3.23;;;1.80;;
13564;SDS011;6854;48.096;11.278;2023-04-03T15:46:38;2.67;;;1.20;;
13564;SDS011;6854;48.096;11.278;2023-04-03T15:49:13;3.30;;;1.37;;
13564;SDS011;6854;48.096;11.278;2023-04-03T15:51:40;2.70;;;1.40;;
13564;SDS011;6854;48.096;11.278;2023-04-03T15:54:06;4.20;;;1.80;;
13564;SDS011;6854;48.096;11.278;2023-04-03T15:56:32;2.70;;;1.50;;
13564;SDS011;6854;48.096;11.278;2023-04-03T15:58:58;2.70;;;1.50;;
13564;SDS011;6854;48.096;11.278;2023-04-03T16:01:24;1.80;;;1.33;;
13564;SDS011;6854;48.096;11.278;2023-04-03T16:03:50;3.10;;;1.70;;
13564;SDS011;6854;48.096;11.278;2023-04-03T16:06:17;2.43;;;1.50;;
13564;SDS011;6854;48.096;11.278;2023-04-03T16:08:44;3.17;;;1.73;;
13564;SDS011;6854;48.096;11.278;2023-04-03T16:11:19;2.43;;;1.50;;
13564;SDS011;6854;48.096;11.278;2023-04-03T16:13:54;3.90;;;1.50;;
13564;SDS011;6854;48.096;11.278;2023-04-03T16:16:20;2.57;;;1.50;;
13564;SDS011;6854;48.096;11.278;2023-04-03T16:18:46;3.60;;;1.73;;
13564;SDS011;6854;48.096;11.278;2023-04-03T16:21:16;3.40;;;1.60;;
13564;SDS011;6854;48.096;11.278;2023-04-03T16:23:45;3.20;;;1.43;;
13564;SDS011;6854;48.096;11.278;2023-04-03T16:26:11;3.07;;;1.50;;
13564;SDS011;6854;48.096;11.278;2023-04-03T16:28:38;3.97;;;1.90;;
13564;SDS011;6854;48.096;11.278;2023-04-03T16:31:05;2.20;;;1.13;;
13564;SDS011;6854;48.096;11.278;2023-04-03T16:33:31;5.23;;;1.70;;
13564;SDS011;6854;48.096;11.278;2023-04-03T16:35:58;2.87;;;1.77;;
13564;SDS011;6854;48.096;11.278;2023-04-03T16:38:24;2.37;;;1.30;;
13564;SDS011;6854;48.096;11.278;2023-04-03T16:40:50;4.40;;;1.70;;
13564;SDS011;6854;48.096;11.278;2023-04-03T16:43:17;4.50;;;2.10;;
13564;SDS011;6854;48.096;11.278;2023-04-03T16:45:43;3.80;;;1.33;;
13564;SDS011;6854;48.096;11.278;2023-04-03T16:48:09;2.93;;;1.40;;
13564;SDS011;6854;48.096;11.278;2023-04-03T16:50:35;3.10;;;1.40;;
13564;SDS011;6854;48.096;11.278;2023-04-03T16:53:01;3.47;;;1.40;;
13564;SDS011;6854;48.096;11.278;2023-04-03T16:55:27;3.30;;;1.60;;
13564;SDS011;6854;48.096;11.278;2023-04-03T16:57:53;3.37;;;1.63;;
13564;SDS011;6854;48.096;11.278;2023-04-03T17:00:20;2.70;;;1.53;;
13564;SDS011;6854;48.096;11.278;2023-04-03T17:02:46;4.57;;;1.70;;
13564;SDS011;6854;48.096;11.278;2023-04-03T17:05:12;4.87;;;1.60;;
13564;SDS011;6854;48.096;11.278;2023-04-03T17:07:38;3.13;;;1.73;;
13564;SDS011;6854;48.096;11.278;2023-04-03T17:10:04;3.53;;;1.40;;
13564;SDS011;6854;48.096;11.278;2023-04-03T17:12:30;3.93;;;1.80;;
13564;SDS011;6854;48.096;11.278;2023-04-03T17:14:56;3.87;;;1.63;;
13564;SDS011;6854;48.096;11.278;2023-04-03T17:17:23;4.70;;;1.47;;
13564;SDS011;6854;48.096;11.278;2023-04-03T17:19:50;4.70;;;1.90;;
13564;SDS011;6854;48.096;11.278;2023-04-03T17:22:18;8.73;;;4.70;;
13564;SDS011;6854;48.096;11.278;2023-04-03T17:24:45;3.70;;;1.70;;
13564;SDS011;6854;48.096;11.278;2023-04-03T17:27:11;3.73;;;1.67;;
13564;SDS011;6854;48.096;11.278;2023-04-03T17:29:37;4.60;;;1.70;;
13564;SDS011;6854;48.096;11.278;2023-04-03T17:32:03;4.57;;;1.60;;
13564;SDS011;6854;48.096;11.278;2023-04-03T17:34:29;5.10;;;2.30;;
13564;SDS011;6854;48.096;11.278;2023-04-03T17:36:55;2.87;;;1.70;;
13564;SDS011;6854;48.096;11.278;2023-04-03T17:39:27;3.90;;;1.50;;
13564;SDS011;6854;48.096;11.278;2023-04-03T18:40:39;7.83;;;2.00;;
13564;SDS011;6854;48.096;11.278;2023-04-03T18:52:54;4.87;;;2.10;;
13564;SDS011;6854;48.096;11.278;2023-04-03T19:11:59;5.13;;;1.80;;
13564;SDS011;6854;48.096;11.278;2023-04-03T19:45:35;6.00;;;2.40;;
13564;SDS011;6854;48.096;11.278;2023-04-03T19:48:44;3.83;;;1.57;;
13564;SDS011;6854;48.096;11.278;2023-04-03T19:51:44;5.87;;;2.07;;
